sensor_id;sensor_type;location;lat;lon;timestamp;P1;durP1;ratioP1;P2;durP2;ratioP2
3667;SDS011;24099;47.102;15.440;2024-02-21T00:00:51;2.88;;;0.80;;
3667;SDS011;24099;47.102;15.440;2024-02-21T00:03:18;2.60;;;0.90;;
3667;SDS011;24099;47.102;15.440;2024-02-21T00:05:50;1.40;;;0.75;;
3667;SDS011;24099;47.102;15.440;2024-02-21T00:08:17;4.15;;;1.02;;
3667;SDS011;24099;47.102;15.440;2024-02-21T00:10:44;1.27;;;0.75;;
3667;SDS011;24099;47.102;15.440;2024-02-21T00:13:12;1.17;;;0.60;;
3667;SDS011;24099;47.102;15.440;2024-02-21T00:15:39;3.38;;;0.80;;
3667;SDS011;24099;47.102;15.440;2024-02-21T00:18:06;1.27;;;0.85;;
3667;SDS011;24099;47.102;15.440;2024-02-21T00:20:33;1.27;;;1.00;;
3667;SDS011;24099;47.102;15.440;2024-02-21T00:23:01;1.90;;;1.00;;
3667;SDS011;24099;47.102;15.440;2024-02-21T00:25:28;1.73;;;1.10;;
3667;SDS011;24099;47.102;15.440;2024-02-21T00:27:55;2.17;;;0.80;;
3667;SDS011;24099;47.102;15.440;2024-02-21T00:30:22;1.27;;;1.00;;
3667;SDS011;24099;47.102;15.440;2024-02-21T00:32:50;2.58;;;0.70;;
3667;SDS011;24099;47.102;15.440;2024-02-21T00:35:17;2.17;;;0.90;;
3667;SDS011;24099;47.102;15.440;2024-02-21T00:37:44;1.73;;;0.98;;
3667;SDS011;24099;47.102;15.440;2024-02-21T00:40:13;0.80;;;0.73;;
3667;SDS011;24099;47.102;15.440;2024-02-21T00:42:45;3.80;;;0.73;;
3667;SDS011;24099;47.102;15.440;2024-02-21T00:45:12;0.88;;;0.88;;
3667;SDS011;24099;47.102;15.440;2024-02-21T00:47:39;0.70;;;0.70;;
3667;SDS011;24099;47.102;15.440;2024-02-21T00:50:07;0.60;;;0.60;;
3667;SDS011;24099;47.102;15.440;2024-02-21T00:52:34;3.00;;;0.90;;
3667;SDS011;24099;47.102;15.440;2024-02-21T00:55:02;1.20;;;0.60;;
3667;SDS011;24099;47.102;15.440;2024-02-21T00:57:30;3.40;;;0.73;;
3667;SDS011;24099;47.102;15.440;2024-02-21T00:59:58;2.30;;;1.00;;
3667;SDS011;24099;47.102;15.440;2024-02-21T01:02:25;0.73;;;0.70;;
3667;SDS011;24099;47.102;15.440;2024-02-21T01:04:52;4.30;;;0.93;;
3667;SDS011;24099;47.102;15.440;2024-02-21T01:07:19;3.33;;;0.95;;
3667;SDS011;24099;47.102;15.440;2024-02-21T01:09:46;5.03;;;1.40;;
3667;SDS011;24099;47.102;15.440;2024-02-21T01:12:13;3.35;;;0.93;;
3667;SDS011;24099;47.102;15.440;2024-02-21T01:14:42;1.92;;;1.23;;
3667;SDS011;24099;47.102;15.440;2024-02-21T01:17:09;1.92;;;0.95;;
3667;SDS011;24099;47.102;15.440;2024-02-21T01:19:36;2.30;;;0.80;;
3667;SDS011;24099;47.102;15.440;2024-02-21T01:22:03;3.30;;;1.10;;
3667;SDS011;24099;47.102;15.440;2024-02-21T01:24:30;2.08;;;0.88;;
3667;SDS011;24099;47.102;15.440;2024-02-21T01:26:58;1.13;;;0.80;;
3667;SDS011;24099;47.102;15.440;2024-02-21T01:29:25;1.77;;;0.80;;
3667;SDS011;24099;47.102;15.440;2024-02-21T01:31:53;1.38;;;0.80;;
3667;SDS011;24099;47.102;15.440;2024-02-21T01:34:20;1.25;;;0.93;;
3667;SDS011;24099;47.102;15.440;2024-02-21T01:36:47;3.22;;;0.90;;
3667;SDS011;24099;47.102;15.440;2024-02-21T01:39:14;2.88;;;0.90;;
3667;SDS011;24099;47.102;15.440;2024-02-21T01:41:41;2.33;;;1.10;;
3667;SDS011;24099;47.102;15.440;2024-02-21T01:44:08;3.97;;;1.00;;
3667;SDS011;24099;47.102;15.440;2024-02-21T01:46:35;1.50;;;0.90;;
3667;SDS011;24099;47.102;15.440;2024-02-21T01:49:04;6.90;;;1.00;;
3667;SDS011;24099;47.102;15.440;2024-02-21T01:51:31;3.42;;;0.98;;
3667;SDS011;24099;47.102;15.440;2024-02-21T01:53:58;4.43;;;0.90;;
3667;SDS011;24099;47.102;15.440;2024-02-21T01:56:25;1.88;;;0.70;;
3667;SDS011;24099;47.102;15.440;2024-02-21T01:58:53;1.98;;;0.95;;
3667;SDS011;24099;47.102;15.440;2024-02-21T02:01:20;2.05;;;0.90;;
3667;SDS011;24099;47.102;15.440;2024-02-21T02:03:48;3.85;;;1.23;;
3667;SDS011;24099;47.102;15.440;2024-02-21T02:06:16;1.48;;;0.82;;
3667;SDS011;24099;47.102;15.440;2024-02-21T02:08:43;4.00;;;1.20;;
3667;SDS011;24099;47.102;15.440;2024-02-21T02:11:12;5.90;;;1.60;;
3667;SDS011;24099;47.102;15.440;2024-02-21T02:13:39;5.05;;;1.20;;
3667;SDS011;24099;47.102;15.440;2024-02-21T02:16:07;2.30;;;1.10;;
3667;SDS011;24099;47.102;15.440;2024-02-21T02:18:34;1.90;;;1.35;;
3667;SDS011;24099;47.102;15.440;2024-02-21T02:21:01;5.72;;;1.35;;
3667;SDS011;24099;47.102;15.440;2024-02-21T02:23:29;1.83;;;1.33;;
3667;SDS011;24099;47.102;15.440;2024-02-21T02:25:57;4.07;;;1.50;;
3667;SDS011;24099;47.102;15.440;2024-02-21T02:28:26;1.92;;;1.20;;
3667;SDS011;24099;47.102;15.440;2024-02-21T02:30:53;3.13;;;1.38;;
3667;SDS011;24099;47.102;15.440;2024-02-21T02:33:20;5.28;;;1.33;;
3667;SDS011;24099;47.102;15.440;2024-02-21T02:35:47;2.60;;;1.38;;
3667;SDS011;24099;47.102;15.440;2024-02-21T02:38:14;2.00;;;1.30;;
3667;SDS011;24099;47.102;15.440;2024-02-21T02:40:43;3.70;;;1.80;;
3667;SDS011;24099;47.102;15.440;2024-02-21T02:43:10;4.78;;;1.25;;
3667;SDS011;24099;47.102;15.440;2024-02-21T02:45:37;7.07;;;1.90;;
3667;SDS011;24099;47.102;15.440;2024-02-21T02:48:04;3.08;;;1.60;;
3667;SDS011;24099;47.102;15.440;2024-02-21T02:50:32;2.85;;;1.30;;
3667;SDS011;24099;47.102;15.440;2024-02-21T02:52:59;4.57;;;1.60;;
3667;SDS011;24099;47.102;15.440;2024-02-21T02:55:26;1.27;;;1.17;;
3667;SDS011;24099;47.102;15.440;2024-02-21T02:57:54;2.67;;;1.40;;
3667;SDS011;24099;47.102;15.440;2024-02-21T03:00:22;6.18;;;1.50;;
3667;SDS011;24099;47.102;15.440;2024-02-21T03:02:49;5.38;;;1.40;;
3667;SDS011;24099;47.102;15.440;2024-02-21T03:05:17;1.20;;;1.10;;
3667;SDS011;24099;47.102;15.440;2024-02-21T03:07:45;4.88;;;1.15;;
3667;SDS011;24099;47.102;15.440;2024-02-21T03:10:12;4.28;;;1.33;;
3667;SDS011;24099;47.102;15.440;2024-02-21T03:12:41;2.55;;;1.20;;
3667;SDS011;24099;47.102;15.440;2024-02-21T03:15:10;4.63;;;1.20;;
3667;SDS011;24099;47.102;15.440;2024-02-21T03:17:38;1.30;;;1.10;;
3667;SDS011;24099;47.102;15.440;2024-02-21T03:20:05;1.92;;;1.25;;
3667;SDS011;24099;47.102;15.440;2024-02-21T03:22:34;1.52;;;0.90;;
3667;SDS011;24099;47.102;15.440;2024-02-21T03:25:01;1.45;;;1.20;;
3667;SDS011;24099;47.102;15.440;2024-02-21T03:27:30;1.35;;;0.98;;
3667;SDS011;24099;47.102;15.440;2024-02-21T03:29:57;4.50;;;1.20;;
3667;SDS011;24099;47.102;15.440;2024-02-21T03:32:25;2.92;;;1.27;;
3667;SDS011;24099;47.102;15.440;2024-02-21T03:34:53;6.90;;;1.70;;
3667;SDS011;24099;47.102;15.440;2024-02-21T03:37:20;2.95;;;1.38;;
3667;SDS011;24099;47.102;15.440;2024-02-21T03:39:47;2.53;;;1.55;;
3667;SDS011;24099;47.102;15.440;2024-02-21T03:42:14;9.32;;;1.27;;
3667;SDS011;24099;47.102;15.440;2024-02-21T03:44:41;1.27;;;1.05;;
3667;SDS011;24099;47.102;15.440;2024-02-21T03:47:08;6.57;;;1.20;;
3667;SDS011;24099;47.102;15.440;2024-02-21T03:49:38;2.75;;;0.93;;
3667;SDS011;24099;47.102;15.440;2024-02-21T03:52:05;3.78;;;1.40;;
3667;SDS011;24099;47.102;15.440;2024-02-21T03:54:33;5.07;;;1.20;;
3667;SDS011;24099;47.102;15.440;2024-02-21T03:57:00;3.55;;;1.20;;
3667;SDS011;24099;47.102;15.440;2024-02-21T03:59:27;2.05;;;0.98;;
3667;SDS011;24099;47.102;15.440;2024-02-21T04:01:54;1.55;;;1.05;;
3667;SDS011;24099;47.102;15.440;2024-02-21T04:04:21;2.05;;;1.20;;
3667;SDS011;24099;47.102;15.440;2024-02-21T04:06:50;1.02;;;0.93;;
3667;SDS011;24099;47.102;15.440;2024-02-21T04:09:17;2.10;;;1.20;;
3667;SDS011;24099;47.102;15.440;2024-02-21T04:11:45;1.55;;;1.00;;
3667;SDS011;24099;47.102;15.440;2024-02-21T04:14:12;1.55;;;0.90;;
3667;SDS011;24099;47.102;15.440;2024-02-21T04:16:39;1.50;;;0.98;;
3667;SDS011;24099;47.102;15.440;2024-02-21T04:19:06;3.60;;;1.00;;
3667;SDS011;24099;47.102;15.440;2024-02-21T04:21:33;2.03;;;1.02;;
3667;SDS011;24099;47.102;15.440;2024-02-21T04:24:02;1.20;;;1.10;;
3667;SDS011;24099;47.102;15.440;2024-02-21T04:26:30;4.72;;;0.90;;
3667;SDS011;24099;47.102;15.440;2024-02-21T04:28:57;1.73;;;1.10;;
3667;SDS011;24099;47.102;15.440;2024-02-21T04:31:24;1.25;;;1.00;;
3667;SDS011;24099;47.102;15.440;2024-02-21T04:33:51;3.60;;;1.27;;
3667;SDS011;24099;47.102;15.440;2024-02-21T04:36:18;1.67;;;0.90;;
3667;SDS011;24099;47.102;15.440;2024-02-21T04:38:45;1.70;;;0.60;;
3667;SDS011;24099;47.102;15.440;2024-02-21T04:41:14;3.92;;;1.10;;
3667;SDS011;24099;47.102;15.440;2024-02-21T04:43:41;2.53;;;1.30;;
3667;SDS011;24099;47.102;15.440;2024-02-21T04:46:08;1.83;;;0.85;;
3667;SDS011;24099;47.102;15.440;2024-02-21T04:48:35;1.25;;;0.88;;
3667;SDS011;24099;47.102;15.440;2024-02-21T04:51:02;1.65;;;1.00;;
3667;SDS011;24099;47.102;15.440;2024-02-21T04:53:30;1.85;;;0.95;;
3667;SDS011;24099;47.102;15.440;2024-02-21T04:55:57;1.25;;;1.00;;
3667;SDS011;24099;47.102;15.440;2024-02-21T04:58:25;2.58;;;0.90;;
3667;SDS011;24099;47.102;15.440;2024-02-21T05:00:52;1.15;;;1.05;;
3667;SDS011;24099;47.102;15.440;2024-02-21T05:03:20;6.78;;;1.02;;
3667;SDS011;24099;47.102;15.440;2024-02-21T05:05:48;3.47;;;0.88;;
3667;SDS011;24099;47.102;15.440;2024-02-21T05:08:15;6.43;;;1.00;;
3667;SDS011;24099;47.102;15.440;2024-02-21T05:10:42;2.85;;;0.98;;
3667;SDS011;24099;47.102;15.440;2024-02-21T05:13:09;2.45;;;1.60;;
3667;SDS011;24099;47.102;15.440;2024-02-21T05:15:38;2.13;;;1.10;;
3667;SDS011;24099;47.102;15.440;2024-02-21T05:18:05;1.73;;;1.00;;
3667;SDS011;24099;47.102;15.440;2024-02-21T05:20:32;4.57;;;1.38;;
3667;SDS011;24099;47.102;15.440;2024-02-21T05:22:59;3.00;;;0.90;;
3667;SDS011;24099;47.102;15.440;2024-02-21T05:25:26;4.55;;;1.10;;
3667;SDS011;24099;47.102;15.440;2024-02-21T05:27:53;1.92;;;1.42;;
3667;SDS011;24099;47.102;15.440;2024-02-21T05:30:21;0.70;;;0.70;;
3667;SDS011;24099;47.102;15.440;2024-02-21T05:32:49;2.08;;;1.00;;
3667;SDS011;24099;47.102;15.440;2024-02-21T05:35:16;1.92;;;0.90;;
3667;SDS011;24099;47.102;15.440;2024-02-21T05:37:43;1.67;;;0.88;;
3667;SDS011;24099;47.102;15.440;2024-02-21T05:40:12;4.53;;;1.58;;
3667;SDS011;24099;47.102;15.440;2024-02-21T05:42:39;11.85;;;1.38;;
3667;SDS011;24099;47.102;15.440;2024-02-21T05:48:22;3.28;;;1.23;;
3667;SDS011;24099;47.102;15.440;2024-02-21T05:50:49;6.78;;;1.48;;
3667;SDS011;24099;47.102;15.440;2024-02-21T05:53:16;3.90;;;1.50;;
3667;SDS011;24099;47.102;15.440;2024-02-21T05:55:43;2.33;;;0.98;;
3667;SDS011;24099;47.102;15.440;2024-02-21T05:58:10;1.58;;;1.20;;
3667;SDS011;24099;47.102;15.440;2024-02-21T06:00:38;3.60;;;1.00;;
3667;SDS011;24099;47.102;15.440;2024-02-21T06:03:06;0.95;;;0.80;;
3667;SDS011;24099;47.102;15.440;2024-02-21T06:05:37;0.77;;;0.70;;
3667;SDS011;24099;47.102;15.440;2024-02-21T06:08:05;7.55;;;1.52;;
3667;SDS011;24099;47.102;15.440;2024-02-21T06:10:32;1.75;;;1.00;;
3667;SDS011;24099;47.102;15.440;2024-02-21T06:12:59;2.63;;;1.15;;
3667;SDS011;24099;47.102;15.440;2024-02-21T06:15:26;4.15;;;1.65;;
3667;SDS011;24099;47.102;15.440;2024-02-21T06:17:54;2.95;;;0.90;;
3667;SDS011;24099;47.102;15.440;2024-02-21T06:20:21;1.40;;;1.02;;
3667;SDS011;24099;47.102;15.440;2024-02-21T06:22:49;2.38;;;0.90;;
3667;SDS011;24099;47.102;15.440;2024-02-21T06:25:16;6.35;;;1.10;;
3667;SDS011;24099;47.102;15.440;2024-02-21T06:27:43;2.33;;;0.90;;
3667;SDS011;24099;47.102;15.440;2024-02-21T06:30:11;2.88;;;1.08;;
3667;SDS011;24099;47.102;15.440;2024-02-21T06:32:38;1.10;;;1.00;;
3667;SDS011;24099;47.102;15.440;2024-02-21T06:35:06;1.38;;;0.90;;
3667;SDS011;24099;47.102;15.440;2024-02-21T06:37:33;2.38;;;1.08;;
3667;SDS011;24099;47.102;15.440;2024-02-21T06:40:02;2.35;;;1.08;;
3667;SDS011;24099;47.102;15.440;2024-02-21T06:42:29;4.32;;;1.27;;
3667;SDS011;24099;47.102;15.440;2024-02-21T06:44:56;4.60;;;1.20;;
3667;SDS011;24099;47.102;15.440;2024-02-21T06:47:23;1.67;;;1.13;;
3667;SDS011;24099;47.102;15.440;2024-02-21T06:49:51;1.67;;;0.85;;
3667;SDS011;24099;47.102;15.440;2024-02-21T06:52:18;2.35;;;1.38;;
3667;SDS011;24099;47.102;15.440;2024-02-21T06:54:46;7.82;;;1.20;;
3667;SDS011;24099;47.102;15.440;2024-02-21T06:57:15;4.82;;;1.20;;
3667;SDS011;24099;47.102;15.440;2024-02-21T06:59:42;1.88;;;1.05;;
3667;SDS011;24099;47.102;15.440;2024-02-21T07:02:09;3.03;;;1.30;;
3667;SDS011;24099;47.102;15.440;2024-02-21T07:04:36;4.95;;;1.05;;
3667;SDS011;24099;47.102;15.440;2024-02-21T07:07:03;2.42;;;1.23;;
3667;SDS011;24099;47.102;15.440;2024-02-21T07:09:30;4.18;;;1.52;;
3667;SDS011;24099;47.102;15.440;2024-02-21T07:11:58;1.95;;;1.50;;
3667;SDS011;24099;47.102;15.440;2024-02-21T07:14:27;2.58;;;2.00;;
3667;SDS011;24099;47.102;15.440;2024-02-21T07:16:54;1.65;;;1.30;;
3667;SDS011;24099;47.102;15.440;2024-02-21T07:19:22;4.20;;;1.58;;
3667;SDS011;24099;47.102;15.440;2024-02-21T07:21:49;8.27;;;1.33;;
3667;SDS011;24099;47.102;15.440;2024-02-21T07:24:16;2.67;;;1.90;;
3667;SDS011;24099;47.102;15.440;2024-02-21T07:26:43;2.80;;;1.40;;
3667;SDS011;24099;47.102;15.440;2024-02-21T07:29:11;12.57;;;2.45;;
3667;SDS011;24099;47.102;15.440;2024-02-21T07:31:41;1.67;;;1.38;;
3667;SDS011;24099;47.102;15.440;2024-02-21T07:34:09;6.13;;;1.55;;
3667;SDS011;24099;47.102;15.440;2024-02-21T07:36:36;3.65;;;1.75;;
3667;SDS011;24099;47.102;15.440;2024-02-21T07:39:04;8.75;;;1.80;;
3667;SDS011;24099;47.102;15.440;2024-02-21T07:41:31;3.22;;;1.65;;
3667;SDS011;24099;47.102;15.440;2024-02-21T07:43:59;3.28;;;1.83;;
3667;SDS011;24099;47.102;15.440;2024-02-21T07:46:27;3.75;;;1.58;;
3667;SDS011;24099;47.102;15.440;2024-02-21T07:48:55;7.55;;;2.10;;
3667;SDS011;24099;47.102;15.440;2024-02-21T07:51:22;8.48;;;2.30;;
3667;SDS011;24099;47.102;15.440;2024-02-21T07:53:54;8.50;;;2.30;;
3667;SDS011;24099;47.102;15.440;2024-02-21T07:56:21;8.88;;;1.98;;
3667;SDS011;24099;47.102;15.440;2024-02-21T07:58:48;4.15;;;2.05;;
3667;SDS011;24099;47.102;15.440;2024-02-21T08:01:18;7.70;;;1.70;;
3667;SDS011;24099;47.102;15.440;2024-02-21T08:03:46;4.57;;;1.60;;
3667;SDS011;24099;47.102;15.440;2024-02-21T08:06:14;4.35;;;1.90;;
3667;SDS011;24099;47.102;15.440;2024-02-21T08:08:45;10.13;;;2.10;;
3667;SDS011;24099;47.102;15.440;2024-02-21T08:11:12;6.05;;;1.58;;
3667;SDS011;24099;47.102;15.440;2024-02-21T08:13:42;5.68;;;1.92;;
3667;SDS011;24099;47.102;15.440;2024-02-21T08:16:09;10.15;;;1.90;;
3667;SDS011;24099;47.102;15.440;2024-02-21T08:18:36;8.23;;;2.10;;
3667;SDS011;24099;47.102;15.440;2024-02-21T08:24:09;5.25;;;1.90;;
3667;SDS011;24099;47.102;15.440;2024-02-21T08:26:55;8.10;;;2.08;;
3667;SDS011;24099;47.102;15.440;2024-02-21T08:29:25;9.55;;;2.00;;
3667;SDS011;24099;47.102;15.440;2024-02-21T08:31:52;7.00;;;1.95;;
3667;SDS011;24099;47.102;15.440;2024-02-21T08:34:22;6.50;;;2.00;;
3667;SDS011;24099;47.102;15.440;2024-02-21T08:39:24;4.68;;;1.98;;
3667;SDS011;24099;47.102;15.440;2024-02-21T08:44:47;6.50;;;1.70;;
3667;SDS011;24099;47.102;15.440;2024-02-21T08:47:14;5.28;;;1.80;;
3667;SDS011;24099;47.102;15.440;2024-02-21T08:49:42;5.40;;;2.10;;
3667;SDS011;24099;47.102;15.440;2024-02-21T08:52:10;5.30;;;1.70;;
3667;SDS011;24099;47.102;15.440;2024-02-21T08:54:37;5.03;;;1.55;;
3667;SDS011;24099;47.102;15.440;2024-02-21T08:59:31;8.10;;;2.30;;
3667;SDS011;24099;47.102;15.440;2024-02-21T09:01:58;5.07;;;1.73;;
3667;SDS011;24099;47.102;15.440;2024-02-21T09:04:25;3.72;;;1.55;;
3667;SDS011;24099;47.102;15.440;2024-02-21T09:09:20;7.57;;;2.17;;
3667;SDS011;24099;47.102;15.440;2024-02-21T09:11:48;7.30;;;2.00;;
3667;SDS011;24099;47.102;15.440;2024-02-21T09:16:41;6.03;;;2.08;;
3667;SDS011;24099;47.102;15.440;2024-02-21T09:19:09;11.05;;;2.08;;
3667;SDS011;24099;47.102;15.440;2024-02-21T09:21:38;5.53;;;1.67;;
3667;SDS011;24099;47.102;15.440;2024-02-21T09:24:05;4.65;;;1.55;;
3667;SDS011;24099;47.102;15.440;2024-02-21T09:26:37;1.98;;;1.55;;
3667;SDS011;24099;47.102;15.440;2024-02-21T09:31:58;3.90;;;1.30;;
3667;SDS011;24099;47.102;15.440;2024-02-21T09:34:25;1.80;;;1.02;;
3667;SDS011;24099;47.102;15.440;2024-02-21T09:41:08;2.72;;;1.20;;
3667;SDS011;24099;47.102;15.440;2024-02-21T09:44:37;4.88;;;1.10;;
3667;SDS011;24099;47.102;15.440;2024-02-21T09:47:06;5.13;;;1.40;;
3667;SDS011;24099;47.102;15.440;2024-02-21T09:49:37;4.85;;;1.60;;
3667;SDS011;24099;47.102;15.440;2024-02-21T09:52:05;2.92;;;1.08;;
3667;SDS011;24099;47.102;15.440;2024-02-21T09:54:33;2.85;;;1.00;;
3667;SDS011;24099;47.102;15.440;2024-02-21T09:59:49;3.78;;;1.05;;
3667;SDS011;24099;47.102;15.440;2024-02-21T10:02:16;1.77;;;1.00;;
3667;SDS011;24099;47.102;15.440;2024-02-21T10:04:44;6.45;;;1.42;;
3667;SDS011;24099;47.102;15.440;2024-02-21T10:10:14;2.28;;;1.10;;
3667;SDS011;24099;47.102;15.440;2024-02-21T10:12:47;4.60;;;0.90;;
3667;SDS011;24099;47.102;15.440;2024-02-21T10:15:19;2.28;;;1.15;;
3667;SDS011;24099;47.102;15.440;2024-02-21T10:17:48;2.25;;;1.00;;
3667;SDS011;24099;47.102;15.440;2024-02-21T10:20:16;1.42;;;0.93;;
3667;SDS011;24099;47.102;15.440;2024-02-21T10:25:10;1.58;;;1.00;;
3667;SDS011;24099;47.102;15.440;2024-02-21T10:27:40;2.28;;;0.80;;
3667;SDS011;24099;47.102;15.440;2024-02-21T10:30:12;4.07;;;0.93;;
3667;SDS011;24099;47.102;15.440;2024-02-21T10:32:49;3.05;;;0.80;;
3667;SDS011;24099;47.102;15.440;2024-02-21T10:36:06;0.95;;;0.65;;
3667;SDS011;24099;47.102;15.440;2024-02-21T10:42:34;9.25;;;0.95;;
3667;SDS011;24099;47.102;15.440;2024-02-21T10:45:20;2.00;;;0.95;;
3667;SDS011;24099;47.102;15.440;2024-02-21T10:50:17;2.58;;;0.90;;
3667;SDS011;24099;47.102;15.440;2024-02-21T10:52:47;3.83;;;0.90;;
3667;SDS011;24099;47.102;15.440;2024-02-21T10:55:19;4.35;;;1.35;;
3667;SDS011;24099;47.102;15.440;2024-02-21T10:57:48;11.90;;;1.67;;
3667;SDS011;24099;47.102;15.440;2024-02-21T11:00:17;0.75;;;0.75;;
3667;SDS011;24099;47.102;15.440;2024-02-21T11:02:46;1.40;;;0.80;;
3667;SDS011;24099;47.102;15.440;2024-02-21T11:05:21;2.20;;;0.80;;
3667;SDS011;24099;47.102;15.440;2024-02-21T11:07:49;4.50;;;0.77;;
3667;SDS011;24099;47.102;15.440;2024-02-21T11:10:22;2.63;;;0.80;;
3667;SDS011;24099;47.102;15.440;2024-02-21T11:16:38;2.35;;;0.90;;
3667;SDS011;24099;47.102;15.440;2024-02-21T11:19:30;2.05;;;1.10;;
3667;SDS011;24099;47.102;15.440;2024-02-21T11:25:07;1.50;;;1.00;;
3667;SDS011;24099;47.102;15.440;2024-02-21T11:27:39;2.08;;;1.00;;
3667;SDS011;24099;47.102;15.440;2024-02-21T11:34:08;3.15;;;1.13;;
3667;SDS011;24099;47.102;15.440;2024-02-21T11:36:56;1.10;;;0.90;;
3667;SDS011;24099;47.102;15.440;2024-02-21T11:56:16;0.75;;;0.73;;
3667;SDS011;24099;47.102;15.440;2024-02-21T12:11:00;1.05;;;0.63;;
3667;SDS011;24099;47.102;15.440;2024-02-21T12:13:27;1.15;;;0.98;;
3667;SDS011;24099;47.102;15.440;2024-02-21T12:15:54;1.17;;;0.98;;
3667;SDS011;24099;47.102;15.440;2024-02-21T12:26:42;1.67;;;0.70;;
3667;SDS011;24099;47.102;15.440;2024-02-21T12:33:59;5.82;;;0.82;;
3667;SDS011;24099;47.102;15.440;2024-02-21T12:36:27;2.65;;;0.77;;
3667;SDS011;24099;47.102;15.440;2024-02-21T12:38:54;0.65;;;0.60;;
3667;SDS011;24099;47.102;15.440;2024-02-21T12:45:29;0.80;;;0.60;;
3667;SDS011;24099;47.102;15.440;2024-02-21T12:48:17;1.20;;;0.63;;
3667;SDS011;24099;47.102;15.440;2024-02-21T13:24:01;1.08;;;0.73;;
3667;SDS011;24099;47.102;15.440;2024-02-21T13:26:49;1.02;;;0.80;;
3667;SDS011;24099;47.102;15.440;2024-02-21T13:37:31;0.73;;;0.60;;
3667;SDS011;24099;47.102;15.440;2024-02-21T14:00:19;1.33;;;0.98;;
3667;SDS011;24099;47.102;15.440;2024-02-21T14:02:46;0.63;;;0.60;;
3667;SDS011;24099;47.102;15.440;2024-02-21T14:30:43;2.20;;;0.77;;
3667;SDS011;24099;47.102;15.440;2024-02-21T15:09:52;1.00;;;0.60;;
3667;SDS011;24099;47.102;15.440;2024-02-21T15:15:30;1.27;;;0.90;;
3667;SDS011;24099;47.102;15.440;2024-02-21T15:17:58;1.33;;;0.73;;
3667;SDS011;24099;47.102;15.440;2024-02-21T15:20:25;3.45;;;0.88;;
3667;SDS011;24099;47.102;15.440;2024-02-21T15:22:53;2.22;;;0.77;;
3667;SDS011;24099;47.102;15.440;2024-02-21T15:33:31;0.95;;;0.70;;
3667;SDS011;24099;47.102;15.440;2024-02-21T15:43:28;1.98;;;0.80;;
3667;SDS011;24099;47.102;15.440;2024-02-21T15:52:03;1.77;;;0.70;;
3667;SDS011;24099;47.102;15.440;2024-02-21T16:03:27;0.73;;;0.50;;
3667;SDS011;24099;47.102;15.440;2024-02-21T16:06:16;0.60;;;0.50;;
3667;SDS011;24099;47.102;15.440;2024-02-21T17:47:40;1.58;;;0.80;;
3667;SDS011;24099;47.102;15.440;2024-02-21T18:18:45;1.85;;;0.88;;
3667;SDS011;24099;47.102;15.440;2024-02-21T18:21:32;1.73;;;0.90;;
3667;SDS011;24099;47.102;15.440;2024-02-21T18:31:41;1.65;;;0.93;;
3667;SDS011;24099;47.102;15.440;2024-02-21T18:42:16;1.20;;;0.80;;
3667;SDS011;24099;47.102;15.440;2024-02-21T18:45:03;2.17;;;0.95;;
3667;SDS011;24099;47.102;15.440;2024-02-21T18:47:31;1.73;;;0.70;;
3667;SDS011;24099;47.102;15.440;2024-02-21T19:07:09;4.03;;;0.70;;
3667;SDS011;24099;47.102;15.440;2024-02-21T19:09:36;4.13;;;0.90;;
3667;SDS011;24099;47.102;15.440;2024-02-21T19:12:05;9.75;;;1.02;;
3667;SDS011;24099;47.102;15.440;2024-02-21T19:14:32;0.90;;;0.73;;
3667;SDS011;24099;47.102;15.440;2024-02-21T19:21:31;1.50;;;0.77;;
3667;SDS011;24099;47.102;15.440;2024-02-21T19:24:06;3.28;;;1.00;;
3667;SDS011;24099;47.102;15.440;2024-02-21T19:26:33;3.30;;;1.00;;
3667;SDS011;24099;47.102;15.440;2024-02-21T19:29:00;3.22;;;0.68;;
3667;SDS011;24099;47.102;15.440;2024-02-21T20:03:05;2.15;;;0.88;;
3667;SDS011;24099;47.102;15.440;2024-02-21T20:16:44;3.15;;;1.17;;
3667;SDS011;24099;47.102;15.440;2024-02-21T20:30:51;2.13;;;0.82;;
3667;SDS011;24099;47.102;15.440;2024-02-21T20:33:39;3.42;;;1.27;;
3667;SDS011;24099;47.102;15.440;2024-02-21T20:36:28;2.13;;;1.00;;
3667;SDS011;24099;47.102;15.440;2024-02-21T20:39:16;2.30;;;0.93;;
3667;SDS011;24099;47.102;15.440;2024-02-21T20:42:02;3.63;;;1.42;;
3667;SDS011;24099;47.102;15.440;2024-02-21T20:57:19;4.85;;;1.52;;
3667;SDS011;24099;47.102;15.440;2024-02-21T21:04:10;2.00;;;1.40;;
3667;SDS011;24099;47.102;15.440;2024-02-21T21:06:37;4.28;;;1.75;;
3667;SDS011;24099;47.102;15.440;2024-02-21T21:09:04;4.00;;;2.00;;
3667;SDS011;24099;47.102;15.440;2024-02-21T21:11:34;8.32;;;2.28;;
3667;SDS011;24099;47.102;15.440;2024-02-21T21:14:35;6.28;;;2.10;;
3667;SDS011;24099;47.102;15.440;2024-02-21T21:17:23;4.70;;;1.98;;
3667;SDS011;24099;47.102;15.440;2024-02-21T21:24:15;3.50;;;1.80;;
3667;SDS011;24099;47.102;15.440;2024-02-21T21:26:51;3.22;;;2.03;;
3667;SDS011;24099;47.102;15.440;2024-02-21T21:29:20;3.60;;;1.73;;
3667;SDS011;24099;47.102;15.440;2024-02-21T21:32:09;4.28;;;1.83;;
3667;SDS011;24099;47.102;15.440;2024-02-21T21:34:57;3.33;;;1.92;;
3667;SDS011;24099;47.102;15.440;2024-02-21T21:37:49;2.63;;;1.63;;
3667;SDS011;24099;47.102;15.440;2024-02-21T21:40:20;4.18;;;1.73;;
3667;SDS011;24099;47.102;15.440;2024-02-21T21:43:06;1.88;;;1.35;;
3667;SDS011;24099;47.102;15.440;2024-02-21T21:45:43;2.55;;;1.38;;
3667;SDS011;24099;47.102;15.440;2024-02-21T21:48:30;6.10;;;1.50;;
3667;SDS011;24099;47.102;15.440;2024-02-21T21:51:05;2.35;;;1.27;;
3667;SDS011;24099;47.102;15.440;2024-02-21T21:57:33;6.13;;;1.55;;
3667;SDS011;24099;47.102;15.440;2024-02-21T22:07:52;3.88;;;1.45;;
3667;SDS011;24099;47.102;15.440;2024-02-21T22:14:20;2.28;;;1.30;;
3667;SDS011;24099;47.102;15.440;2024-02-21T22:19:57;4.13;;;1.73;;
3667;SDS011;24099;47.102;15.440;2024-02-21T22:25:44;3.03;;;1.58;;
3667;SDS011;24099;47.102;15.440;2024-02-21T22:31:29;2.08;;;1.23;;
3667;SDS011;24099;47.102;15.440;2024-02-21T22:34:17;5.15;;;1.52;;
3667;SDS011;24099;47.102;15.440;2024-02-21T22:36:53;4.35;;;1.60;;
3667;SDS011;24099;47.102;15.440;2024-02-21T22:42:58;4.85;;;2.00;;
3667;SDS011;24099;47.102;15.440;2024-02-21T22:45:56;6.15;;;1.80;;
3667;SDS011;24099;47.102;15.440;2024-02-21T22:48:28;3.30;;;1.75;;
3667;SDS011;24099;47.102;15.440;2024-02-21T22:54:48;2.93;;;1.37;;
3667;SDS011;24099;47.102;15.440;2024-02-21T22:57:46;4.60;;;1.38;;
3667;SDS011;24099;47.102;15.440;2024-02-21T23:00:23;3.38;;;1.20;;
3667;SDS011;24099;47.102;15.440;2024-02-21T23:03:09;4.20;;;1.45;;
3667;SDS011;24099;47.102;15.440;2024-02-21T23:05:36;4.35;;;1.40;;
3667;SDS011;24099;47.102;15.440;2024-02-21T23:08:03;2.25;;;1.52;;
3667;SDS011;24099;47.102;15.440;2024-02-21T23:10:31;2.35;;;1.60;;
3667;SDS011;24099;47.102;15.440;2024-02-21T23:13:00;1.70;;;1.30;;
3667;SDS011;24099;47.102;15.440;2024-02-21T23:19:34;2.20;;;1.33;;
3667;SDS011;24099;47.102;15.440;2024-02-21T23:25:27;2.17;;;1.52;;
3667;SDS011;24099;47.102;15.440;2024-02-21T23:28:18;1.35;;;1.20;;
3667;SDS011;24099;47.102;15.440;2024-02-21T23:33:40;3.78;;;1.65;;
3667;SDS011;24099;47.102;15.440;2024-02-21T23:36:25;2.55;;;1.40;;
3667;SDS011;24099;47.102;15.440;2024-02-21T23:39:06;2.40;;;1.30;;
3667;SDS011;24099;47.102;15.440;2024-02-21T23:41:53;2.85;;;1.60;;
3667;SDS011;24099;47.102;15.440;2024-02-21T23:52:43;3.40;;;1.38;;
3667;SDS011;24099;47.102;15.440;2024-02-21T23:55:22;1.75;;;1.30;;
